Time;durP1;ratioP1;P1;durP2;ratioP2;P2;SDS_P1;SDS_P2;PMS_P1;PMS_P2;Temp;Humidity;BMP_temperature;BMP_pressure;BME280_temperature;BME280_humidity;BME280_pressure;Samples;Min_cycle;Max_cycle;Signal;HPM_P1;HPM_P2
2022/02/11 00:10:31;;;;;;;9.13;8.10;;;8.80;95.10;;;;;;5008758;28;20474;-88
2022/02/11 00:12:58;;;;;;;9.80;7.80;;;8.80;95.10;;;;;;5012950;28;20498;-88
2022/02/11 00:18:10;;;;;;;9.10;7.47;;;8.70;95.60;;;;;;4997027;28;21293;-87
2022/02/11 00:20:46;;;;;;;9.10;8.20;;;8.80;95.50;;;;;;4997950;28;20454;-88
2022/02/11 00:23:15;;;;;;;12.20;8.80;;;8.80;95.40;;;;;;4998322;28;20475;-88
2022/02/11 00:25:48;;;;;;;9.40;8.17;;;8.70;95.40;;;;;;5005829;28;20471;-89
2022/02/11 00:31:45;;;;;;;11.67;10.13;;;8.70;95.70;;;;;;5000437;28;20431;-88
2022/02/11 00:34:11;;;;;;;14.30;8.13;;;8.60;95.60;;;;;;4995109;28;20448;-88
2022/02/11 00:36:48;;;;;;;9.50;7.87;;;8.60;95.90;;;;;;4998587;28;20454;-88
2022/02/11 00:39:50;;;;;;;10.60;7.70;;;8.50;95.80;;;;;;5010155;28;20463;-88
2022/02/11 00:45:38;;;;;;;12.80;8.47;;;8.60;95.80;;;;;;4997313;28;21010;-87
2022/02/11 03:31:33;;;;;;;6.93;5.27;;;7.30;99.90;;;;;;4943141;29;20418;-91
2022/02/11 03:34:51;;;;;;;6.27;4.53;;;6.90;99.90;;;;;;5006200;28;20445;-89
2022/02/11 05:00:08;;;;;;;4.90;4.50;;;4.80;99.90;;;;;;5004637;28;20925;-87
2022/02/11 05:02:35;;;;;;;5.47;4.90;;;4.70;99.90;;;;;;5004108;28;20488;-87
2022/02/11 05:05:04;;;;;;;4.53;4.13;;;4.70;99.90;;;;;;5002725;28;20568;-87
2022/02/11 05:07:32;;;;;;;6.00;5.40;;;4.60;99.90;;;;;;5012396;28;20446;-87
2022/02/11 05:10:00;;;;;;;5.70;5.20;;;4.70;99.90;;;;;;5010721;28;21175;-87
2022/02/11 05:19:33;;;;;;;4.93;4.47;;;4.60;99.90;;;;;;4971162;28;20498;-90
2022/02/11 05:22:00;;;;;;;5.10;4.70;;;4.60;99.90;;;;;;5005267;28;20472;-90
2022/02/11 05:24:26;;;;;;;6.20;4.90;;;4.70;99.90;;;;;;5016319;28;20480;-90
2022/02/11 05:26:54;;;;;;;5.17;4.67;;;4.60;99.90;;;;;;5006882;28;20550;-90
2022/02/11 05:29:21;;;;;;;5.67;5.17;;;4.60;99.90;;;;;;5015994;28;20477;-90
2022/02/11 05:31:49;;;;;;;5.83;5.30;;;4.60;99.90;;;;;;4997807;28;20466;-90
2022/02/11 05:34:16;;;;;;;7.17;5.07;;;4.60;99.90;;;;;;4997671;28;20889;-90
2022/02/11 05:36:43;;;;;;;5.97;5.47;;;4.70;99.90;;;;;;4979799;28;20545;-90
2022/02/11 05:39:16;;;;;;;6.03;5.43;;;4.60;99.90;;;;;;4985120;28;20817;-90
2022/02/11 05:41:43;;;;;;;5.30;4.60;;;4.60;99.90;;;;;;4999914;28;20490;-91
2022/02/11 05:44:17;;;;;;;5.20;4.37;;;4.60;99.90;;;;;;4999543;28;20444;-90
2022/02/11 05:46:47;;;;;;;5.63;5.07;;;4.60;99.90;;;;;;5000086;28;20548;-90
2022/02/11 05:49:14;;;;;;;5.70;4.57;;;4.60;99.90;;;;;;4997660;28;20481;-90
2022/02/11 05:51:41;;;;;;;4.67;4.20;;;4.60;99.90;;;;;;5017549;28;20482;-89
2022/02/11 05:54:15;;;;;;;4.60;4.20;;;4.70;99.90;;;;;;4997692;28;20506;-91
2022/02/11 05:56:46;;;;;;;5.40;4.57;;;4.70;99.90;;;;;;4998711;28;20441;-91
2022/02/11 05:59:25;;;;;;;4.80;4.23;;;4.70;99.90;;;;;;4996782;28;20963;-91
2022/02/11 06:01:54;;;;;;;4.50;4.10;;;4.70;99.90;;;;;;5004240;28;20467;-92
2022/02/11 06:04:24;;;;;;;4.50;3.53;;;4.70;99.90;;;;;;5009599;28;20454;-91
2022/02/11 06:06:57;;;;;;;5.60;5.10;;;4.70;99.90;;;;;;5015627;28;20489;-91
2022/02/11 06:09:40;;;;;;;6.13;4.93;;;4.60;99.90;;;;;;5015584;28;20477;-90
2022/02/11 06:12:07;;;;;;;7.20;4.70;;;4.60;99.90;;;;;;5002620;28;20979;-90
2022/02/11 06:14:42;;;;;;;5.37;4.77;;;4.60;99.90;;;;;;4999584;28;20426;-91
2022/02/11 06:17:16;;;;;;;4.93;4.43;;;4.60;99.90;;;;;;5002831;28;20437;-91
2022/02/11 06:19:51;;;;;;;6.27;5.27;;;4.60;99.90;;;;;;4997960;28;20446;-91
2022/02/11 06:22:20;;;;;;;5.60;5.10;;;4.70;99.90;;;;;;4997695;28;20918;-91
2022/02/11 06:24:53;;;;;;;5.67;5.07;;;4.60;99.90;;;;;;4999468;28;20466;-91
2022/02/11 06:27:23;;;;;;;5.20;4.70;;;4.60;99.90;;;;;;5001556;28;20846;-91
2022/02/11 06:32:47;;;;;;;6.63;5.57;;;4.50;99.90;;;;;;5017436;28;20521;-90
2022/02/11 06:35:20;;;;;;;5.40;4.40;;;4.40;99.90;;;;;;5006133;28;20457;-90
2022/02/11 06:37:59;;;;;;;7.07;5.30;;;4.20;99.90;;;;;;5007592;28;20441;-89
2022/02/11 06:40:32;;;;;;;6.20;5.17;;;4.20;99.90;;;;;;5017336;28;20429;-89
2022/02/11 06:43:00;;;;;;;6.80;5.70;;;4.10;99.90;;;;;;5016382;28;20458;-88
2022/02/11 06:45:28;;;;;;;6.90;6.20;;;4.00;99.90;;;;;;5016793;28;20478;-89
2022/02/11 06:47:55;;;;;;;6.47;5.10;;;4.00;99.90;;;;;;5008410;28;20423;-91
2022/02/11 06:50:22;;;;;;;6.03;5.43;;;3.90;99.90;;;;;;4998584;28;20465;-89
2022/02/11 06:53:01;;;;;;;9.23;5.80;;;3.90;99.90;;;;;;4998109;28;20472;-90
2022/02/11 06:55:28;;;;;;;9.63;6.60;;;3.80;99.90;;;;;;4997338;28;20537;-89
2022/02/11 06:58:00;;;;;;;6.10;5.50;;;3.90;99.90;;;;;;5001553;28;20452;-90
2022/02/11 07:00:33;;;;;;;5.90;5.30;;;3.80;99.90;;;;;;5000129;28;20457;-90
2022/02/11 07:03:10;;;;;;;10.20;6.00;;;3.80;99.90;;;;;;5001682;28;20474;-89
2022/02/11 07:05:42;;;;;;;6.23;5.73;;;3.80;99.90;;;;;;5015871;28;20472;-90
2022/02/11 07:08:16;;;;;;;9.67;5.90;;;3.80;99.90;;;;;;5019252;28;20447;-90
2022/02/11 07:10:52;;;;;;;8.10;6.20;;;3.80;99.90;;;;;;5012512;28;20972;-90
2022/02/11 07:16:21;;;;;;;11.47;6.67;;;3.80;99.90;;;;;;5012292;28;20441;-90
2022/02/11 07:19:03;;;;;;;6.90;5.97;;;3.80;99.90;;;;;;5006407;28;20985;-89
2022/02/11 07:21:36;;;;;;;8.93;6.10;;;3.80;99.90;;;;;;5001103;28;20498;-90
2022/02/11 07:26:50;;;;;;;10.33;6.90;;;3.90;99.90;;;;;;4999470;28;20492;-90
2022/02/11 07:29:19;;;;;;;9.20;6.50;;;4.00;99.90;;;;;;5001664;28;20448;-90
2022/02/11 07:31:49;;;;;;;6.43;5.83;;;4.10;99.90;;;;;;5019383;28;20447;-88
2022/02/11 07:34:22;;;;;;;8.33;5.77;;;4.10;99.90;;;;;;5016815;28;20460;-90
2022/02/11 07:36:52;;;;;;;6.77;5.90;;;4.20;99.90;;;;;;4999765;28;20499;-90
2022/02/11 07:39:33;;;;;;;6.60;5.90;;;4.30;99.90;;;;;;5001327;28;20484;-90
2022/02/11 07:42:14;;;;;;;6.77;5.80;;;4.40;99.90;;;;;;5000781;28;20519;-91
2022/02/11 07:44:49;;;;;;;6.00;5.40;;;4.40;99.90;;;;;;5002064;28;20452;-90
2022/02/11 07:47:23;;;;;;;7.63;5.70;;;4.40;99.90;;;;;;5017581;28;20512;-89
2022/02/11 07:49:53;;;;;;;5.93;4.93;;;4.40;99.90;;;;;;5001656;28;20453;-89
2022/02/11 07:52:26;;;;;;;8.20;4.77;;;4.40;99.90;;;;;;5000416;28;20465;-91
2022/02/11 07:54:58;;;;;;;5.27;4.70;;;4.50;99.90;;;;;;4999269;28;20450;-91
2022/02/11 07:57:28;;;;;;;5.63;4.93;;;4.30;99.90;;;;;;5005997;28;20440;-90
2022/02/11 07:59:55;;;;;;;6.33;4.83;;;4.30;99.90;;;;;;5003327;28;20556;-90
2022/02/11 08:05:08;;;;;;;5.93;4.50;;;4.40;99.90;;;;;;4995495;28;20452;-91
2022/02/11 08:07:35;;;;;;;7.93;4.80;;;4.40;99.90;;;;;;4980635;28;21023;-90
2022/02/11 08:10:02;;;;;;;4.80;4.30;;;4.40;99.90;;;;;;5003883;28;20465;-90
2022/02/11 08:12:29;;;;;;;5.10;4.67;;;4.50;99.90;;;;;;4999533;28;20485;-90
2022/02/11 08:15:02;;;;;;;5.57;5.00;;;4.60;99.90;;;;;;4995508;28;20482;-89
2022/02/11 08:17:40;;;;;;;6.23;4.27;;;4.70;99.90;;;;;;5002363;28;20762;-89
2022/02/11 08:20:08;;;;;;;8.50;4.70;;;4.70;99.90;;;;;;4999418;28;20454;-91
2022/02/11 08:22:35;;;;;;;6.90;4.80;;;4.80;99.90;;;;;;5002374;28;20520;-89
2022/02/11 08:25:01;;;;;;;11.40;5.30;;;4.90;99.90;;;;;;5004447;28;20545;-91
2022/02/11 08:27:29;;;;;;;6.83;4.70;;;5.00;99.90;;;;;;5008253;28;20483;-89
2022/02/11 08:29:56;;;;;;;7.83;4.60;;;5.20;99.90;;;;;;5001067;28;20461;-91
2022/02/11 08:32:24;;;;;;;6.63;4.70;;;5.30;99.90;;;;;;5000086;28;20470;-90
2022/02/11 08:34:57;;;;;;;7.70;4.73;;;5.40;99.90;;;;;;5000454;28;20456;-90
2022/02/11 08:37:29;;;;;;;5.50;3.87;;;5.70;99.90;;;;;;5013988;28;20443;-89
2022/02/11 08:39:55;;;;;;;7.43;3.80;;;6.10;99.90;;;;;;5018351;28;20439;-89
2022/02/11 08:42:33;;;;;;;5.00;3.60;;;6.30;99.90;;;;;;5001563;28;20466;-90
2022/02/11 08:45:09;;;;;;;8.70;4.20;;;6.30;99.90;;;;;;4998727;28;20447;-90
2022/02/11 08:47:38;;;;;;;8.47;4.20;;;6.30;99.90;;;;;;4997966;28;20478;-89
2022/02/11 08:50:07;;;;;;;7.20;4.73;;;7.00;99.90;;;;;;5000182;28;20505;-90
2022/02/11 08:52:35;;;;;;;5.63;4.13;;;7.70;99.90;;;;;;5006468;28;20475;-90
2022/02/11 08:55:02;;;;;;;9.93;4.50;;;7.90;98.40;;;;;;5008307;28;20439;-90
2022/02/11 08:57:32;;;;;;;3.80;3.40;;;8.10;97.90;;;;;;5005020;28;20451;-91
2022/02/11 09:00:02;;;;;;;4.20;2.70;;;8.50;96.30;;;;;;5000655;28;20451;-90
2022/02/11 09:02:28;;;;;;;4.03;2.93;;;8.70;95.30;;;;;;4999847;28;20564;-91
2022/02/11 09:04:55;;;;;;;3.90;2.93;;;8.50;94.10;;;;;;5001213;28;20530;-92
2022/02/11 09:07:26;;;;;;;5.33;3.00;;;8.60;95.00;;;;;;5016605;28;20513;-90
2022/02/11 09:09:53;;;;;;;7.43;3.80;;;8.60;94.20;;;;;;5011125;28;20458;-92
2022/02/11 09:12:20;;;;;;;5.40;3.10;;;8.60;94.00;;;;;;5013803;28;20506;-91
2022/02/11 09:14:47;;;;;;;5.20;3.57;;;8.90;94.10;;;;;;5005908;28;20947;-91
2022/02/11 09:17:21;;;;;;;5.30;3.17;;;8.90;93.30;;;;;;4996595;28;20462;-88
2022/02/11 09:22:53;;;;;;;4.77;2.63;;;9.80;92.50;;;;;;4990860;28;20549;-89
2022/02/11 09:28:14;;;;;;;4.77;2.80;;;9.50;90.80;;;;;;5001164;28;20501;-87
2022/02/11 09:30:41;;;;;;;5.33;2.70;;;9.10;91.00;;;;;;5000757;28;20483;-87
2022/02/11 09:33:13;;;;;;;5.30;2.80;;;8.70;91.10;;;;;;5000094;28;21102;-88
2022/02/11 09:35:57;;;;;;;4.03;2.40;;;8.80;92.20;;;;;;4999019;28;20451;-88
2022/02/11 09:41:39;;;;;;;6.50;2.90;;;9.10;89.70;;;;;;4998934;28;20455;-88
2022/02/11 09:47:00;;;;;;;6.73;2.50;;;9.60;84.70;;;;;;4996637;28;20979;-87
2022/02/11 09:49:41;;;;;;;6.27;3.60;;;9.90;87.90;;;;;;5002497;28;20518;-88
2022/02/11 09:52:26;;;;;;;6.10;2.80;;;10.70;85.90;;;;;;5006930;28;20482;-88
2022/02/11 09:57:56;;;;;;;4.30;2.40;;;10.90;81.70;;;;;;4995678;28;20458;-88
2022/02/11 10:00:38;;;;;;;3.43;2.30;;;10.80;81.90;;;;;;5012611;28;20451;-88
2022/02/11 10:03:25;;;;;;;9.37;3.83;;;11.60;80.90;;;;;;5015253;28;20534;-88
2022/02/11 10:06:06;;;;;;;2.60;2.20;;;11.70;78.00;;;;;;5013093;28;20459;-88
2022/02/11 10:08:45;;;;;;;4.37;2.60;;;10.80;77.80;;;;;;4998229;28;20505;-88
2022/02/11 10:11:32;;;;;;;4.17;2.77;;;11.40;80.20;;;;;;5008032;28;20534;-88
2022/02/11 10:14:19;;;;;;;6.83;2.50;;;12.60;77.70;;;;;;5001430;28;20447;-89
2022/02/11 10:20:11;;;;;;;4.50;2.50;;;13.00;72.10;;;;;;5002669;28;20487;-88
2022/02/11 10:22:55;;;;;;;6.00;2.90;;;12.00;72.90;;;;;;5000193;28;20557;-88
2022/02/11 10:28:59;;;;;;;8.47;2.97;;;10.00;77.90;;;;;;4995797;28;20501;-88
2022/02/11 10:31:39;;;;;;;4.70;2.80;;;9.40;83.00;;;;;;5000264;28;20493;-88
2022/02/11 10:37:12;;;;;;;3.50;2.43;;;11.10;81.00;;;;;;4995208;28;20434;-88
2022/02/11 10:42:57;;;;;;;6.70;3.47;;;10.70;78.80;;;;;;4998320;28;20470;-88
2022/02/11 10:45:45;;;;;;;6.67;2.80;;;10.40;79.80;;;;;;4998182;28;20490;-89
2022/02/11 10:48:34;;;;;;;5.63;3.10;;;10.00;80.10;;;;;;4998409;28;20860;-90
2022/02/11 10:54:28;;;;;;;6.90;3.40;;;9.50;83.30;;;;;;5011391;28;20474;-88
2022/02/11 11:09:22;;;;;;;6.30;2.97;;;10.50;78.30;;;;;;5004073;28;20446;-89
2022/02/11 11:12:01;;;;;;;5.20;3.50;;;10.00;80.00;;;;;;5006460;28;20482;-89
2022/02/11 11:14:31;;;;;;;3.57;2.67;;;11.00;81.00;;;;;;5005969;28;20450;-90
2022/02/11 11:17:05;;;;;;;4.90;3.37;;;11.50;76.90;;;;;;5002846;28;20431;-88
2022/02/11 11:19:59;;;;;;;5.57;3.20;;;11.50;76.50;;;;;;5005020;28;20793;-90
2022/02/11 11:22:34;;;;;;;9.13;3.10;;;11.50;76.40;;;;;;5007544;28;20465;-90
2022/02/11 11:25:04;;;;;;;5.63;3.83;;;11.30;76.40;;;;;;5013678;28;20438;-90
2022/02/11 11:27:40;;;;;;;7.43;4.70;;;11.40;77.10;;;;;;5009875;28;20471;-90
2022/02/11 11:30:28;;;;;;;6.93;3.60;;;11.10;76.20;;;;;;5007920;28;20457;-89
2022/02/11 11:33:21;;;;;;;7.63;3.93;;;10.50;77.80;;;;;;5007157;28;20468;-82
2022/02/11 11:36:05;;;;;;;5.30;3.03;;;10.40;80.00;;;;;;5010989;28;20923;-82
2022/02/11 11:38:48;;;;;;;5.13;3.90;;;10.20;80.40;;;;;;5008052;28;20458;-80
2022/02/11 11:41:21;;;;;;;6.30;2.90;;;9.80;83.50;;;;;;5002466;28;20523;-90
2022/02/11 11:43:51;;;;;;;6.67;3.93;;;9.60;82.10;;;;;;5007644;28;20502;-89
2022/02/11 11:46:32;;;;;;;4.93;2.93;;;9.50;82.40;;;;;;5012437;28;20474;-88
2022/02/11 11:49:01;;;;;;;3.83;3.23;;;9.50;82.20;;;;;;5006344;28;20506;-89
2022/02/11 11:51:32;;;;;;;10.27;3.80;;;9.30;82.70;;;;;;5001887;28;20466;-89
2022/02/11 11:54:34;;;;;;;5.80;2.80;;;9.30;83.00;;;;;;5008532;28;20545;-88
2022/02/11 11:57:06;;;;;;;8.57;2.57;;;9.50;82.60;;;;;;5008357;28;20966;-88
2022/02/11 11:59:37;;;;;;;3.50;3.17;;;9.90;80.90;;;;;;5005805;28;20451;-89
2022/02/11 12:02:07;;;;;;;5.07;3.73;;;10.90;79.60;;;;;;5005343;28;20466;-88
2022/02/11 12:04:53;;;;;;;4.60;2.53;;;12.10;76.10;;;;;;5005430;28;20475;-90
2022/02/11 12:07:24;;;;;;;4.50;3.20;;;11.90;72.80;;;;;;5005804;28;20490;-88
2022/02/11 12:09:56;;;;;;;3.20;2.33;;;11.60;72.60;;;;;;5005460;28;20447;-89
2022/02/11 12:12:24;;;;;;;4.60;3.20;;;11.10;71.70;;;;;;5005090;28;20479;-89
2022/02/11 12:14:58;;;;;;;4.80;2.70;;;10.70;71.90;;;;;;5008760;28;20442;-89
2022/02/11 12:17:32;;;;;;;10.63;3.40;;;10.50;72.60;;;;;;5016941;28;20473;-88
2022/02/11 12:20:26;;;;;;;9.20;4.03;;;10.20;72.90;;;;;;5002580;28;20451;-89
2022/02/11 12:28:30;;;;;;;7.50;4.80;;;10.30;72.50;;;;;;4998445;28;20878;-87
2022/02/11 12:31:04;;;;;;;6.43;4.73;;;10.20;73.20;;;;;;5002952;28;20462;-86
2022/02/11 12:33:34;;;;;;;3.83;2.83;;;10.20;73.40;;;;;;5011300;28;20454;-86
2022/02/11 12:36:13;;;;;;;5.87;3.00;;;10.00;74.40;;;;;;5002051;28;20497;-87
2022/02/11 12:38:41;;;;;;;6.70;4.17;;;10.00;74.90;;;;;;4998907;28;20455;-86
2022/02/11 12:41:11;;;;;;;4.03;2.73;;;9.50;76.10;;;;;;4997066;28;20474;-86
2022/02/11 12:43:39;;;;;;;2.77;2.43;;;9.40;76.50;;;;;;4996130;28;20451;-86
2022/02/11 12:46:23;;;;;;;;;;;;;;;;;;;;;
2022/02/11 12:48:53;;;;;;;5.50;3.20;;;9.30;77.30;;;;;;5000753;28;20551;-87
2022/02/11 12:51:30;;;;;;;5.30;2.73;;;9.20;78.00;;;;;;4998801;28;21118;-87
2022/02/11 12:54:06;;;;;;;6.53;2.90;;;9.10;77.40;;;;;;5001258;28;20439;-87
2022/02/11 12:56:38;;;;;;;10.30;4.03;;;9.10;77.90;;;;;;5010538;28;20458;-88
2022/02/11 12:59:28;;;;;;;10.13;4.10;;;9.20;78.10;;;;;;5012919;28;20447;-87
2022/02/11 13:01:54;;;;;;;6.00;3.83;;;9.20;78.70;;;;;;4999580;28;20478;-88
2022/02/11 13:04:24;;;;;;;7.60;3.70;;;9.10;79.50;;;;;;4994794;28;20979;-87
2022/02/11 13:06:57;;;;;;;4.13;3.47;;;9.20;78.80;;;;;;4995132;28;20454;-88
2022/02/11 13:09:26;;;;;;;6.23;3.00;;;8.90;79.10;;;;;;4994932;28;20451;-86
2022/02/11 13:11:57;;;;;;;8.73;4.30;;;9.00;80.30;;;;;;5010858;28;20494;-87
2022/02/11 13:14:27;;;;;;;5.03;2.90;;;9.10;80.50;;;;;;4996149;28;20838;-87
2022/02/11 13:16:55;;;;;;;5.00;2.63;;;9.10;80.90;;;;;;4995210;28;20462;-86
2022/02/11 13:19:26;;;;;;;3.30;2.60;;;9.20;81.20;;;;;;4996276;28;20456;-87
2022/02/11 13:21:56;;;;;;;5.13;2.63;;;9.30;80.50;;;;;;4996471;28;20471;-87
2022/02/11 13:24:25;;;;;;;4.50;3.17;;;9.10;80.20;;;;;;4995455;28;20458;-87
2022/02/11 13:26:52;;;;;;;7.10;2.77;;;9.10;79.90;;;;;;4994713;28;20461;-87
2022/02/11 13:29:19;;;;;;;4.73;2.27;;;9.10;79.70;;;;;;5022095;23;20502;-87
2022/02/11 13:31:47;;;;;;;6.27;2.63;;;9.00;79.70;;;;;;5003080;28;20451;-87
2022/02/11 13:34:14;;;;;;;5.50;3.23;;;9.20;80.50;;;;;;5003828;28;20455;-87
2022/02/11 13:36:45;;;;;;;5.10;2.77;;;11.20;77.00;;;;;;4999346;28;20482;-88
2022/02/11 13:39:28;;;;;;;3.10;2.53;;;13.30;71.60;;;;;;5008807;28;20482;-87
2022/02/11 13:41:55;;;;;;;4.47;2.50;;;14.20;64.70;;;;;;4999745;28;20517;-85
2022/02/11 13:44:22;;;;;;;3.87;2.30;;;13.10;63.10;;;;;;5004822;28;20456;-84
2022/02/11 13:46:54;;;;;;;13.20;2.40;;;12.80;65.20;;;;;;5006404;28;20498;-86
2022/02/11 13:49:22;;;;;;;4.37;2.37;;;12.70;64.50;;;;;;5001853;28;20493;-87
2022/02/11 13:55:00;;;;;;;2.53;2.13;;;12.10;67.00;;;;;;5010694;28;20883;-87
2022/02/11 13:57:27;;;;;;;5.50;2.57;;;11.30;66.90;;;;;;5004219;28;20446;-86
2022/02/11 13:59:54;;;;;;;7.53;3.10;;;10.70;68.40;;;;;;5013144;28;20471;-84
2022/02/11 14:02:22;;;;;;;5.70;2.93;;;9.70;71.00;;;;;;5015864;28;20435;-84
2022/02/11 14:05:00;;;;;;;5.60;2.60;;;9.30;74.20;;;;;;5013728;28;20451;-86
2022/02/11 14:07:27;;;;;;;4.17;2.43;;;8.90;75.60;;;;;;5007939;28;20451;-86
2022/02/11 14:09:55;;;;;;;4.90;2.03;;;8.70;76.70;;;;;;5009550;28;20467;-85
2022/02/11 14:12:32;;;;;;;8.37;4.30;;;8.80;77.60;;;;;;5006852;28;20447;-85
2022/02/11 14:15:02;;;;;;;5.87;3.87;;;9.00;76.70;;;;;;5012990;28;20431;-86
2022/02/11 14:17:32;;;;;;;9.00;3.87;;;9.50;77.30;;;;;;5013854;28;20456;-87
2022/02/11 14:19:59;;;;;;;6.97;4.27;;;9.60;75.20;;;;;;5005896;28;21023;-86
2022/02/11 14:22:26;;;;;;;6.73;3.97;;;10.10;73.50;;;;;;5001548;28;20451;-87
2022/02/11 14:24:53;;;;;;;6.00;3.00;;;10.80;71.50;;;;;;4996321;28;20455;-86
2022/02/11 14:27:19;;;;;;;4.07;2.50;;;11.00;69.00;;;;;;5002596;28;20452;-86
2022/02/11 14:29:47;;;;;;;2.63;2.20;;;11.00;67.50;;;;;;5001589;28;20481;-86
2022/02/11 14:32:14;;;;;;;3.10;2.60;;;11.00;66.80;;;;;;5001703;28;20451;-86
2022/02/11 14:34:41;;;;;;;5.10;2.47;;;10.70;67.80;;;;;;5000959;28;20446;-86
2022/02/11 14:37:08;;;;;;;4.90;2.67;;;10.40;69.20;;;;;;4997455;28;21036;-86
2022/02/11 14:39:35;;;;;;;4.70;2.40;;;10.10;69.40;;;;;;4992191;28;20474;-86
2022/02/11 14:42:04;;;;;;;4.83;2.60;;;9.80;71.40;;;;;;4990075;28;20481;-86
2022/02/11 14:44:36;;;;;;;5.30;3.13;;;9.50;72.30;;;;;;4991516;28;20440;-86
2022/02/11 14:47:08;;;;;;;5.57;2.83;;;9.30;74.20;;;;;;4992863;28;20443;-87
2022/02/11 14:49:36;;;;;;;5.67;2.90;;;9.20;75.40;;;;;;4998100;28;20514;-86
2022/02/11 14:52:05;;;;;;;17.23;8.03;;;9.50;75.70;;;;;;4999635;28;20466;-86
2022/02/11 14:54:32;;;;;;;3.37;3.00;;;9.80;75.60;;;;;;4995369;28;20979;-87
2022/02/11 14:56:59;;;;;;;4.70;3.40;;;9.90;74.60;;;;;;4997316;28;20450;-87
2022/02/11 14:59:26;;;;;;;3.97;3.17;;;9.90;74.50;;;;;;4999983;28;20447;-85
2022/02/11 15:01:55;;;;;;;7.63;3.87;;;9.60;73.00;;;;;;5005955;28;20443;-86
2022/02/11 15:04:24;;;;;;;5.43;3.80;;;9.50;73.30;;;;;;5008494;28;20453;-85
2022/02/11 15:06:51;;;;;;;4.93;2.70;;;9.30;74.30;;;;;;4998411;28;20443;-86
2022/02/11 15:09:19;;;;;;;3.73;2.60;;;9.00;73.50;;;;;;5004851;28;20483;-87
2022/02/11 15:11:45;;;;;;;5.40;2.97;;;8.90;73.50;;;;;;4991650;28;20451;-86
2022/02/11 15:14:13;;;;;;;10.33;4.07;;;8.70;73.50;;;;;;4994754;28;20451;-87
2022/02/11 15:16:39;;;;;;;5.30;3.97;;;8.60;73.90;;;;;;4991829;28;20448;-85
2022/02/11 15:19:07;;;;;;;4.90;2.50;;;8.50;74.70;;;;;;4993044;28;21017;-85
2022/02/11 15:21:36;;;;;;;5.70;2.57;;;8.40;74.50;;;;;;5001645;28;20447;-86
2022/02/11 15:24:03;;;;;;;2.97;2.67;;;8.20;74.40;;;;;;4998802;28;20899;-86
2022/02/11 15:26:30;;;;;;;6.57;3.80;;;8.20;75.00;;;;;;4995116;28;20455;-86
2022/02/11 15:28:57;;;;;;;3.93;2.60;;;8.10;76.00;;;;;;5002401;28;20479;-86
2022/02/11 15:31:23;;;;;;;3.97;3.00;;;8.00;75.80;;;;;;5009121;28;20443;-86
2022/02/11 15:33:50;;;;;;;5.87;2.90;;;8.00;76.40;;;;;;5014051;28;20427;-87
2022/02/11 15:36:17;;;;;;;5.30;2.80;;;7.90;77.00;;;;;;5008026;28;20453;-85
2022/02/11 15:38:46;;;;;;;4.30;2.80;;;8.00;77.70;;;;;;5001956;28;20931;-86
2022/02/11 15:41:12;;;;;;;11.53;2.63;;;8.00;78.30;;;;;;4999074;28;20456;-87
2022/02/11 15:43:40;;;;;;;6.83;3.60;;;7.90;78.00;;;;;;4997281;28;20451;-86
2022/02/11 15:46:08;;;;;;;8.50;5.70;;;8.00;78.30;;;;;;5005986;28;20534;-85
2022/02/11 15:48:39;;;;;;;6.57;3.10;;;8.00;79.10;;;;;;5007950;28;20490;-89
2022/02/11 15:51:09;;;;;;;10.20;4.90;;;8.00;79.00;;;;;;5014173;28;20467;-89
2022/02/11 15:53:36;;;;;;;12.17;4.23;;;8.00;78.50;;;;;;5003168;28;20455;-89
2022/02/11 15:56:06;;;;;;;9.90;2.97;;;8.00;78.60;;;;;;5008693;28;20431;-88
2022/02/11 15:58:34;;;;;;;3.50;2.80;;;8.00;78.70;;;;;;5001962;28;20449;-88
2022/02/11 16:01:01;;;;;;;4.90;2.53;;;7.90;79.40;;;;;;5009028;28;20446;-90
2022/02/11 16:03:28;;;;;;;4.53;3.53;;;7.80;79.70;;;;;;5014143;28;20519;-88
2022/02/11 16:05:55;;;;;;;14.70;4.60;;;7.80;80.40;;;;;;5006021;28;20450;-87
2022/02/11 16:08:22;;;;;;;8.03;3.83;;;7.80;81.00;;;;;;5013872;28;20485;-88
2022/02/11 16:10:48;;;;;;;9.20;3.60;;;7.80;81.10;;;;;;5012182;28;20448;-90
2022/02/11 16:13:18;;;;;;;8.17;4.23;;;7.80;81.40;;;;;;5001440;28;20447;-89
2022/02/11 16:15:45;;;;;;;10.67;4.07;;;7.70;81.30;;;;;;5001751;28;20452;-88
2022/02/11 16:18:16;;;;;;;7.60;2.97;;;7.70;81.40;;;;;;4999207;28;20882;-88
2022/02/11 16:20:45;;;;;;;9.23;3.83;;;7.60;81.60;;;;;;5001442;28;20921;-90
2022/02/11 16:23:14;;;;;;;11.77;4.10;;;7.60;82.40;;;;;;5012569;28;20451;-86
2022/02/11 16:25:41;;;;;;;5.70;3.13;;;7.60;83.70;;;;;;5007699;28;20450;-89
2022/02/11 16:28:10;;;;;;;7.13;5.07;;;7.60;84.70;;;;;;5013248;28;20472;-89
2022/02/11 16:30:42;;;;;;;8.03;2.90;;;7.60;86.10;;;;;;5010982;28;20507;-90
2022/02/11 16:33:55;;;;;;;8.30;2.73;;;7.50;86.00;;;;;;4999468;28;20448;-91
2022/02/11 16:57:16;;;;;;;6.93;3.90;;;6.50;97.10;;;;;;5021056;23;20478;-93
2022/02/11 16:59:56;;;;;;;5.17;3.93;;;6.30;98.40;;;;;;5001422;28;20469;-88
2022/02/11 20:43:29;;;;;;;17.27;13.43;;;3.70;99.90;;;;;;5006056;23;20493;-80
2022/02/11 20:45:56;;;;;;;23.43;14.30;;;3.70;99.90;;;;;;5000866;28;20452;-82
2022/02/11 20:48:23;;;;;;;19.30;14.57;;;3.70;99.90;;;;;;5003940;28;20438;-81
